Terminal Aerodrome Forecast
Issued by NWS Corpus Christi, TX

Home | Current Version | Previous Version | Text Only | Print | Product List | Glossary On
Versions: 1 2 3 4 5 6 7 8 9 10 11 12 13 14 15 16 17 18 19 20 21 22 23
506
FTUS44 KCRP 051728
TAFCRP
TAF
KCRP 051728Z 0518/0618 33016KT P6SM BKN015 OVC025
     FM052000 32015KT P6SM BKN025 BKN035
     FM052200 30013KT P6SM SCT035
     FM060200 26007KT P6SM SKC
     FM060900 24005KT 4SM BR SKC
     FM061500 23010KT P6SM SKC=

USA.gov is the U.S. government's official web portal to all federal, state and local government web resources and services.